Terminal Aerodrome Forecast
Issued by NWS Wilmington, OH

Current Version | Previous Version | Graphics & Text | Print | Product List | Glossary On
Versions: 1 2 3 4 5 6 7 8 9 10 11 12 13 14 15 16 17 18 19 20 21 22 23 24 25
000
FTUS41 KILN 030222 AAD
TAFCMH
TAF AMD
KCMH 030222Z 0302/0324 VRB03KT P6SM VCTS SCT050CB
      TEMPO 0303/0304 3SM TSRA BR BKN035CB
     FM030400 00000KT P6SM BKN200
     FM031400 31007KT P6SM SCT040
     FM031900 32008KT P6SM VCTS BKN035CB=

USA.gov is the U.S. government's official web portal to all federal, state and local government web resources and services.